createdAt,value
2019-05-26T00:01:55.407Z,99.90
2019-05-26T00:04:23.200Z,99.90
2019-05-26T00:06:51.046Z,99.90
2019-05-26T00:09:18.876Z,99.90
2019-05-26T00:11:47.066Z,99.90
2019-05-26T00:14:14.867Z,99.90
2019-05-26T00:16:42.676Z,99.90
2019-05-26T00:19:10.584Z,99.90
2019-05-26T00:21:38.364Z,99.90
2019-05-26T00:24:06.133Z,99.90
2019-05-26T00:26:33.969Z,99.90
2019-05-26T00:29:01.813Z,99.90
2019-05-26T00:31:29.654Z,99.90
2019-05-26T00:33:57.453Z,99.90
2019-05-26T00:36:25.266Z,99.90
2019-05-26T00:38:53.055Z,99.90
2019-05-26T00:41:20.880Z,99.90
2019-05-26T00:43:48.695Z,99.90
2019-05-26T00:46:16.477Z,99.90
2019-05-26T00:48:44.463Z,99.90
2019-05-26T00:51:12.293Z,99.90
2019-05-26T00:53:40.096Z,99.90
2019-05-26T00:56:07.956Z,99.90
2019-05-26T00:58:35.796Z,99.90
2019-05-26T01:01:03.990Z,99.90
2019-05-26T01:03:31.783Z,99.90
2019-05-26T01:05:59.544Z,99.90
2019-05-26T01:08:27.359Z,99.90
2019-05-26T01:10:55.144Z,99.90
2019-05-26T01:13:22.970Z,99.90
2019-05-26T01:15:50.741Z,99.90
2019-05-26T01:18:18.637Z,99.90
2019-05-26T01:20:46.439Z,99.90
2019-05-26T01:23:14.257Z,99.90
2019-05-26T01:25:42.899Z,99.90
2019-05-26T01:28:10.709Z,99.90
2019-05-26T01:30:39.050Z,99.90
2019-05-26T01:33:07.251Z,99.90
2019-05-26T01:35:39.525Z,99.90
2019-05-26T01:38:22.626Z,99.90
2019-05-26T01:40:40.345Z,99.90
2019-05-26T01:43:08.523Z,99.90
2019-05-26T01:45:36.315Z,99.90
2019-05-26T01:48:05.326Z,99.90
2019-05-26T01:50:33.113Z,99.90
2019-05-26T01:53:00.914Z,99.90
2019-05-26T01:55:28.703Z,99.90
2019-05-26T01:57:56.524Z,99.90
2019-05-26T02:00:24.915Z,99.90
2019-05-26T02:02:52.687Z,99.90
2019-05-26T02:05:20.480Z,99.90
2019-05-26T02:07:48.309Z,99.90
2019-05-26T02:10:16.186Z,99.90
2019-05-26T02:12:44.024Z,99.90
2019-05-26T02:15:13.458Z,99.90
2019-05-26T02:17:41.260Z,99.90
2019-05-26T02:20:09.436Z,99.90
2019-05-26T02:22:37.319Z,99.90
2019-05-26T02:25:06.537Z,99.90
2019-05-26T02:27:34.364Z,99.90
2019-05-26T02:30:02.233Z,99.90
2019-05-26T02:32:30.044Z,99.90
2019-05-26T02:34:57.800Z,99.90
2019-05-26T02:37:25.596Z,99.90
2019-05-26T02:39:53.365Z,99.90
2019-05-26T02:42:21.129Z,99.90
2019-05-26T02:44:48.915Z,99.90
2019-05-26T02:47:16.701Z,99.90
2019-05-26T02:49:44.520Z,99.90
2019-05-26T02:52:12.308Z,99.90
2019-05-26T02:54:40.110Z,99.90
2019-05-26T02:57:07.902Z,99.90
2019-05-26T02:59:35.692Z,99.90
2019-05-26T03:02:04.835Z,99.90
2019-05-26T03:04:32.871Z,99.90
2019-05-26T03:07:02.714Z,99.90
2019-05-26T03:09:32.902Z,99.90
2019-05-26T03:12:02.612Z,99.90
2019-05-26T03:14:33.462Z,99.90
2019-05-26T03:17:01.757Z,99.90
2019-05-26T03:19:32.628Z,99.90
2019-05-26T03:22:02.452Z,99.90
2019-05-26T03:24:32.154Z,99.90
2019-05-26T03:27:00.003Z,99.90
2019-05-26T03:29:27.787Z,99.90
2019-05-26T03:31:55.707Z,99.90
2019-05-26T03:34:23.475Z,99.90
2019-05-26T03:36:51.354Z,99.90
2019-05-26T03:39:19.116Z,99.90
2019-05-26T03:41:46.929Z,99.90
2019-05-26T03:44:14.719Z,99.90
2019-05-26T03:46:42.524Z,99.90
2019-05-26T03:49:10.320Z,99.90
2019-05-26T03:51:38.160Z,99.90
2019-05-26T03:54:05.970Z,99.90
2019-05-26T03:56:33.768Z,99.90
2019-05-26T03:59:01.575Z,99.90
2019-05-26T04:01:29.363Z,99.90
2019-05-26T04:03:57.140Z,99.90
2019-05-26T04:06:24.925Z,99.90
2019-05-26T04:08:52.738Z,99.90
2019-05-26T04:11:20.519Z,99.90
2019-05-26T04:13:48.317Z,99.90
2019-05-26T04:16:16.097Z,99.90
2019-05-26T04:18:43.909Z,99.90
2019-05-26T04:21:11.844Z,99.90
2019-05-26T04:23:39.668Z,99.90
2019-05-26T04:26:07.485Z,99.90
2019-05-26T04:28:35.275Z,99.90
2019-05-26T04:31:03.150Z,99.90
2019-05-26T04:33:30.977Z,99.90
2019-05-26T04:35:58.818Z,99.90
2019-05-26T04:38:26.628Z,99.90
2019-05-26T04:40:54.469Z,99.90
2019-05-26T04:43:22.225Z,99.90
2019-05-26T04:45:50.024Z,99.90
2019-05-26T04:48:17.839Z,99.90
2019-05-26T04:50:45.609Z,99.90
2019-05-26T04:53:13.443Z,99.90
2019-05-26T04:55:41.219Z,99.90
2019-05-26T04:58:09.027Z,99.90
2019-05-26T05:00:36.839Z,99.90
2019-05-26T05:03:04.715Z,99.90
2019-05-26T05:05:32.505Z,99.90
2019-05-26T05:08:00.284Z,99.90
2019-05-26T05:10:41.430Z,99.90
2019-05-26T05:12:57.797Z,99.90
2019-05-26T05:15:25.731Z,99.90
2019-05-26T05:17:53.559Z,99.90
2019-05-26T05:20:21.341Z,99.90
2019-05-26T05:22:49.195Z,99.90
2019-05-26T05:25:17.175Z,99.90
2019-05-26T05:27:45.743Z,99.90
2019-05-26T05:30:14.415Z,99.90
2019-05-26T05:32:42.260Z,99.90
2019-05-26T05:35:10.481Z,99.90
2019-05-26T05:37:38.301Z,99.90
2019-05-26T05:40:07.239Z,99.90
2019-05-26T05:42:34.998Z,99.90
2019-05-26T05:45:03.273Z,99.90
2019-05-26T05:47:31.036Z,99.90
2019-05-26T05:49:58.860Z,99.90
2019-05-26T05:52:26.672Z,99.90
2019-05-26T05:54:54.482Z,99.90
2019-05-26T05:57:22.285Z,99.90
2019-05-26T05:59:50.098Z,99.90
2019-05-26T06:02:17.919Z,99.90
2019-05-26T06:04:45.707Z,99.90
2019-05-26T06:07:13.474Z,99.90
2019-05-26T06:12:09.037Z,99.90
2019-05-26T06:14:36.849Z,99.90
2019-05-26T06:17:04.687Z,99.90
2019-05-26T06:19:32.529Z,99.90
2019-05-26T06:22:00.317Z,99.90
2019-05-26T06:24:28.139Z,99.90
2019-05-26T06:26:55.918Z,99.90
2019-05-26T06:29:23.713Z,99.90
2019-05-26T06:31:51.770Z,99.90
2019-05-26T06:34:19.737Z,99.90
2019-05-26T06:36:47.559Z,99.90
2019-05-26T06:39:15.390Z,99.90
2019-05-26T06:41:43.166Z,99.90
2019-05-26T06:44:11.012Z,99.90
2019-05-26T06:46:38.786Z,99.00
2019-05-26T06:49:06.589Z,96.90
2019-05-26T06:51:34.396Z,94.00
2019-05-26T06:54:02.184Z,92.50
2019-05-26T06:56:30.130Z,91.10
2019-05-26T06:59:01.967Z,88.60
2019-05-26T07:01:27.674Z,85.60
2019-05-26T07:03:55.505Z,82.90
2019-05-26T07:06:23.323Z,82.50
2019-05-26T07:08:51.182Z,81.60
2019-05-26T07:11:18.982Z,80.00
2019-05-26T07:13:46.777Z,76.90
2019-05-26T07:16:14.630Z,76.00
2019-05-26T07:18:42.451Z,75.00
2019-05-26T07:21:10.266Z,74.10
2019-05-26T07:23:38.162Z,71.40
2019-05-26T07:26:06.071Z,68.90
2019-05-26T07:28:33.930Z,67.20
2019-05-26T07:31:01.744Z,67.90
2019-05-26T07:33:29.565Z,65.30
2019-05-26T07:35:57.674Z,65.20
2019-05-26T07:38:25.491Z,63.90
2019-05-26T07:40:53.337Z,61.90
2019-05-26T07:43:21.140Z,60.70
2019-05-26T07:45:48.993Z,60.70
2019-05-26T07:48:16.752Z,59.50
2019-05-26T07:50:44.558Z,58.30
2019-05-26T07:53:12.504Z,57.90
2019-05-26T07:55:40.299Z,56.70
2019-05-26T07:58:08.116Z,56.10
2019-05-26T08:00:35.995Z,56.60
2019-05-26T08:03:03.850Z,55.10
2019-05-26T08:05:31.656Z,54.00
2019-05-26T08:08:12.278Z,53.80
2019-05-26T08:10:29.265Z,53.80
2019-05-26T08:12:57.034Z,52.50
2019-05-26T08:15:24.876Z,51.10
2019-05-26T08:17:52.696Z,49.80
2019-05-26T08:20:20.596Z,47.60
2019-05-26T08:22:48.389Z,46.90
2019-05-26T08:25:16.225Z,46.80
2019-05-26T08:27:44.093Z,46.30
2019-05-26T08:30:14.207Z,44.90
2019-05-26T08:32:42.014Z,44.90
2019-05-26T08:35:09.839Z,44.20
2019-05-26T08:37:37.682Z,43.10
2019-05-26T08:40:17.969Z,43.90
2019-05-26T08:42:47.643Z,43.80
2019-05-26T08:45:15.560Z,43.10
2019-05-26T08:47:43.419Z,42.60
2019-05-26T08:50:11.440Z,42.50
2019-05-26T08:52:39.236Z,41.50
2019-05-26T08:55:07.551Z,40.50
2019-05-26T08:57:35.356Z,40.10
2019-05-26T09:00:03.945Z,40.50
2019-05-26T09:02:31.764Z,40.70
2019-05-26T09:04:59.605Z,40.10
2019-05-26T09:07:27.390Z,40.60
2019-05-26T09:09:55.203Z,41.00
2019-05-26T09:12:23.038Z,40.80
2019-05-26T09:14:50.870Z,40.00
2019-05-26T09:17:18.706Z,40.00
2019-05-26T09:19:46.542Z,39.60
2019-05-26T09:22:14.362Z,38.70
2019-05-26T09:24:42.147Z,38.10
2019-05-26T09:27:09.956Z,37.80
2019-05-26T09:29:37.781Z,37.80
2019-05-26T09:32:05.583Z,37.70
2019-05-26T09:34:33.369Z,37.20
2019-05-26T09:37:01.195Z,37.30
2019-05-26T09:39:28.993Z,37.90
2019-05-26T09:41:56.793Z,38.90
2019-05-26T09:44:24.587Z,39.30
2019-05-26T09:46:52.371Z,39.60
2019-05-26T09:49:20.191Z,38.70
2019-05-26T09:51:48.025Z,38.40
2019-05-26T09:54:15.846Z,38.60
2019-05-26T09:56:43.672Z,40.00
2019-05-26T09:59:11.447Z,39.90
2019-05-26T10:01:39.239Z,39.10
2019-05-26T10:04:07.065Z,38.40
2019-05-26T10:06:34.869Z,38.30
2019-05-26T10:09:04.468Z,37.50
2019-05-26T10:11:32.293Z,36.70
2019-05-26T10:14:00.093Z,36.50
2019-05-26T10:16:27.946Z,35.40
2019-05-26T10:18:55.761Z,35.10
2019-05-26T10:21:23.634Z,35.50
2019-05-26T10:23:53.139Z,36.30
2019-05-26T10:26:21.242Z,37.50
2019-05-26T10:28:49.127Z,39.00
2019-05-26T10:31:16.973Z,39.90
2019-05-26T10:33:44.774Z,40.00
2019-05-26T10:36:12.582Z,40.60
2019-05-26T10:38:40.380Z,40.00
2019-05-26T10:41:08.173Z,41.50
2019-05-26T10:43:46.743Z,43.10
2019-05-26T10:46:05.711Z,44.00
2019-05-26T10:48:33.604Z,43.30
2019-05-26T10:51:01.414Z,42.70
2019-05-26T10:53:29.295Z,42.20
2019-05-26T10:55:57.177Z,41.80
2019-05-26T10:58:25.029Z,41.10
2019-05-26T11:00:52.833Z,41.40
2019-05-26T11:03:20.644Z,41.00
2019-05-26T11:05:48.448Z,40.70
2019-05-26T11:08:16.290Z,41.70
2019-05-26T11:10:44.183Z,41.70
2019-05-26T11:13:11.999Z,40.80
2019-05-26T11:15:39.804Z,40.20
2019-05-26T11:18:07.636Z,39.90
2019-05-26T11:20:35.419Z,39.90
2019-05-26T11:23:04.937Z,39.00
2019-05-26T11:25:32.740Z,39.00
2019-05-26T11:28:00.538Z,39.60
2019-05-26T11:30:28.717Z,39.80
2019-05-26T11:32:59.543Z,41.20
2019-05-26T11:35:26.277Z,42.50
2019-05-26T11:37:54.125Z,43.30
2019-05-26T11:40:22.119Z,42.80
2019-05-26T11:42:49.941Z,43.50
2019-05-26T11:45:19.464Z,44.00
2019-05-26T11:47:47.281Z,44.30
2019-05-26T11:50:15.611Z,44.50
2019-05-26T11:52:43.453Z,44.50
2019-05-26T11:55:12.870Z,43.70
2019-05-26T11:57:41.342Z,41.90
2019-05-26T12:00:14.400Z,41.30
2019-05-26T12:02:43.181Z,40.30
2019-05-26T12:05:11.303Z,40.50
2019-05-26T12:07:39.117Z,40.70
2019-05-26T12:10:07.650Z,40.50
2019-05-26T12:12:35.569Z,40.50
2019-05-26T12:15:04.692Z,39.50
2019-05-26T12:17:32.498Z,38.20
2019-05-26T12:20:00.373Z,37.20
2019-05-26T12:22:28.252Z,37.80
2019-05-26T12:24:56.072Z,38.00
2019-05-26T12:27:23.897Z,37.80
2019-05-26T12:29:51.743Z,37.30
2019-05-26T12:32:19.568Z,37.10
2019-05-26T12:34:47.440Z,37.10
2019-05-26T12:37:15.232Z,36.40
2019-05-26T12:39:43.097Z,36.90
2019-05-26T12:42:10.929Z,37.30
2019-05-26T12:44:49.085Z,37.50
2019-05-26T12:47:08.480Z,38.30
2019-05-26T12:49:36.339Z,38.90
2019-05-26T12:52:04.443Z,38.80
2019-05-26T12:54:32.222Z,38.40
2019-05-26T12:57:00.036Z,38.80
2019-05-26T12:59:27.824Z,39.20
2019-05-26T13:01:55.668Z,40.20
2019-05-26T13:04:23.475Z,41.20
2019-05-26T13:06:51.397Z,41.40
2019-05-26T13:09:19.209Z,40.70
2019-05-26T13:11:47.031Z,40.90
2019-05-26T13:14:14.848Z,41.60
2019-05-26T13:16:42.696Z,41.70
2019-05-26T13:19:10.500Z,40.60
2019-05-26T13:21:38.323Z,40.40
2019-05-26T13:24:06.149Z,41.60
2019-05-26T13:26:33.977Z,42.60
2019-05-26T13:29:01.812Z,43.20
2019-05-26T13:31:29.639Z,44.00
2019-05-26T13:33:57.441Z,44.20
2019-05-26T13:36:25.418Z,45.10
2019-05-26T13:38:53.208Z,44.80
2019-05-26T13:41:21.066Z,44.90
2019-05-26T13:43:48.904Z,45.10
2019-05-26T13:46:16.715Z,46.00
2019-05-26T13:48:44.486Z,46.80
2019-05-26T13:51:12.302Z,48.10
2019-05-26T13:53:40.216Z,49.10
2019-05-26T13:56:08.046Z,50.00
2019-05-26T13:58:35.928Z,50.80
2019-05-26T14:01:03.849Z,50.80
2019-05-26T14:03:31.727Z,51.00
2019-05-26T14:05:59.531Z,51.40
2019-05-26T14:08:27.427Z,51.20
2019-05-26T14:10:55.330Z,51.50
2019-05-26T14:13:23.340Z,52.10
2019-05-26T14:15:54.356Z,51.90
2019-05-26T14:18:23.663Z,51.60
2019-05-26T14:20:51.517Z,51.70
2019-05-26T14:23:19.385Z,52.30
2019-05-26T14:25:47.235Z,52.70
2019-05-26T14:28:15.033Z,53.60
2019-05-26T14:30:42.877Z,53.10
2019-05-26T14:33:10.833Z,53.20
2019-05-26T14:35:38.605Z,53.40
2019-05-26T14:38:06.447Z,52.80
2019-05-26T14:40:34.377Z,53.00
2019-05-26T14:43:02.329Z,53.00
2019-05-26T14:45:30.265Z,54.10
2019-05-26T14:47:58.108Z,53.60
2019-05-26T14:50:26.409Z,53.30
2019-05-26T14:52:54.619Z,53.20
2019-05-26T14:55:22.612Z,53.20
2019-05-26T14:57:50.431Z,53.30
2019-05-26T15:00:19.442Z,53.80
2019-05-26T15:02:47.285Z,53.70
2019-05-26T15:05:16.998Z,53.80
2019-05-26T15:07:44.840Z,54.00
2019-05-26T15:10:13.068Z,53.90
2019-05-26T15:12:40.899Z,54.40
2019-05-26T15:15:09.044Z,54.70
2019-05-26T15:17:36.861Z,54.60
2019-05-26T15:20:05.289Z,53.90
2019-05-26T15:22:34.567Z,53.90
2019-05-26T15:25:02.556Z,53.70
2019-05-26T15:27:30.393Z,54.40
2019-05-26T15:29:58.268Z,55.00
2019-05-26T15:32:26.371Z,55.20
2019-05-26T15:34:54.227Z,55.60
2019-05-26T15:37:22.071Z,55.70
2019-05-26T15:39:50.011Z,54.80
2019-05-26T15:42:18.008Z,54.90
2019-05-26T15:44:45.744Z,55.60
2019-05-26T15:47:13.551Z,55.40
2019-05-26T15:49:41.333Z,55.40
2019-05-26T15:52:09.175Z,55.60
2019-05-26T15:54:36.965Z,55.50
2019-05-26T15:57:04.940Z,55.40
2019-05-26T15:59:32.797Z,55.60
2019-05-26T16:02:00.663Z,55.70
2019-05-26T16:04:28.509Z,55.70
2019-05-26T16:06:56.320Z,56.00
2019-05-26T16:09:24.165Z,56.00
2019-05-26T16:11:52.007Z,55.00
2019-05-26T16:14:19.812Z,54.60
2019-05-26T16:16:51.156Z,55.00
2019-05-26T16:19:17.433Z,55.00
2019-05-26T16:21:45.246Z,55.10
2019-05-26T16:24:13.043Z,55.00
2019-05-26T16:26:40.868Z,54.40
2019-05-26T16:29:08.702Z,54.00
2019-05-26T16:31:36.552Z,53.00
2019-05-26T16:34:04.465Z,53.10
2019-05-26T16:36:32.334Z,53.40
2019-05-26T16:39:00.162Z,53.40
2019-05-26T16:41:28.017Z,53.70
2019-05-26T16:43:55.900Z,54.00
2019-05-26T16:46:23.819Z,53.80
2019-05-26T16:48:54.596Z,54.30
2019-05-26T16:51:21.378Z,54.30
2019-05-26T16:53:49.260Z,53.70
2019-05-26T16:56:17.092Z,53.90
2019-05-26T16:58:44.918Z,54.40
2019-05-26T17:01:12.715Z,54.90
2019-05-26T17:03:40.629Z,55.10
2019-05-26T17:06:08.509Z,54.80
2019-05-26T17:08:36.383Z,55.30
2019-05-26T17:11:04.375Z,55.90
2019-05-26T17:13:33.142Z,56.30
2019-05-26T17:16:01.217Z,56.60
2019-05-26T17:18:29.044Z,56.80
2019-05-26T17:20:56.912Z,56.90
2019-05-26T17:23:24.798Z,57.20
2019-05-26T17:25:52.670Z,57.60
2019-05-26T17:28:20.479Z,57.40
2019-05-26T17:30:48.374Z,57.60
2019-05-26T17:33:16.164Z,57.60
2019-05-26T17:35:43.949Z,58.00
2019-05-26T17:38:11.907Z,58.10
2019-05-26T17:40:39.717Z,57.90
2019-05-26T17:43:07.599Z,58.20
2019-05-26T17:45:35.409Z,58.80
2019-05-26T17:48:03.207Z,58.80
2019-05-26T17:50:31.046Z,58.50
2019-05-26T17:52:58.859Z,59.00
2019-05-26T17:55:26.666Z,58.70
2019-05-26T17:57:54.497Z,59.00
2019-05-26T18:00:22.426Z,58.70
2019-05-26T18:02:50.287Z,59.00
2019-05-26T18:05:18.165Z,59.20
2019-05-26T18:07:45.925Z,59.70
2019-05-26T18:10:13.977Z,59.80
2019-05-26T18:12:41.748Z,60.00
2019-05-26T18:15:10.552Z,59.90
2019-05-26T18:17:46.914Z,60.20
2019-05-26T18:20:09.133Z,60.70
2019-05-26T18:22:36.959Z,61.10
2019-05-26T18:25:05.244Z,61.40
2019-05-26T18:27:33.035Z,61.70
2019-05-26T18:30:00.831Z,62.30
2019-05-26T18:32:28.672Z,62.60
2019-05-26T18:34:56.463Z,62.80
2019-05-26T18:37:24.288Z,63.10
2019-05-26T18:39:52.125Z,63.50
2019-05-26T18:42:21.366Z,64.00
2019-05-26T18:44:51.877Z,64.30
2019-05-26T18:47:19.705Z,64.70
2019-05-26T18:49:47.539Z,65.00
2019-05-26T18:52:15.399Z,65.40
2019-05-26T18:54:43.205Z,65.80
2019-05-26T18:57:11.012Z,66.10
2019-05-26T18:59:38.833Z,66.40
2019-05-26T19:02:06.721Z,66.60
2019-05-26T19:04:34.544Z,66.90
2019-05-26T19:07:02.400Z,67.10
2019-05-26T19:09:30.218Z,67.10
2019-05-26T19:11:58.083Z,67.50
2019-05-26T19:14:25.881Z,67.80
2019-05-26T19:16:53.711Z,68.30
2019-05-26T19:19:21.561Z,68.50
2019-05-26T19:21:49.438Z,69.00
2019-05-26T19:24:17.268Z,69.50
2019-05-26T19:26:45.103Z,70.10
2019-05-26T19:29:12.890Z,70.60
2019-05-26T19:31:40.671Z,71.00
2019-05-26T19:34:08.523Z,71.50
2019-05-26T19:36:36.321Z,72.00
2019-05-26T19:39:07.927Z,72.70
2019-05-26T19:41:38.981Z,73.00
2019-05-26T19:44:06.523Z,73.30
2019-05-26T19:46:34.339Z,73.70
2019-05-26T19:49:02.133Z,74.10
2019-05-26T19:51:29.983Z,74.60
2019-05-26T19:53:57.829Z,75.00
2019-05-26T19:56:25.915Z,75.60
2019-05-26T19:58:53.773Z,75.90
2019-05-26T20:01:21.635Z,76.30
2019-05-26T20:03:49.470Z,76.60
2019-05-26T20:06:17.300Z,77.10
2019-05-26T20:08:45.225Z,77.30
2019-05-26T20:11:13.059Z,77.60
2019-05-26T20:13:41.119Z,78.00
2019-05-26T20:16:08.917Z,78.20
2019-05-26T20:18:36.785Z,78.70
2019-05-26T20:21:04.698Z,78.90
2019-05-26T20:23:32.528Z,79.10
2019-05-26T20:26:00.324Z,79.60
2019-05-26T20:28:28.152Z,79.80
2019-05-26T20:30:55.948Z,80.20
2019-05-26T20:33:23.798Z,80.70
2019-05-26T20:35:51.655Z,81.30
2019-05-26T20:38:19.475Z,81.60
2019-05-26T20:40:47.278Z,82.10
2019-05-26T20:43:15.117Z,82.40
2019-05-26T20:45:42.934Z,82.90
2019-05-26T20:48:10.779Z,83.40
2019-05-26T20:50:38.659Z,83.80
2019-05-26T20:53:06.476Z,84.30
2019-05-26T20:55:34.259Z,84.60
2019-05-26T20:58:02.064Z,85.20
2019-05-26T21:00:30.239Z,85.90
2019-05-26T21:02:58.174Z,86.70
2019-05-26T21:05:25.992Z,87.90
2019-05-26T21:07:53.800Z,89.00
2019-05-26T21:10:21.663Z,90.20
2019-05-26T21:12:50.275Z,90.80
2019-05-26T21:15:18.279Z,91.60
2019-05-26T21:17:46.098Z,92.40
2019-05-26T21:20:15.007Z,93.30
2019-05-26T21:22:42.825Z,94.40
2019-05-26T21:25:12.562Z,95.50
2019-05-26T21:27:40.349Z,96.50
2019-05-26T21:30:09.226Z,97.30
2019-05-26T21:32:36.979Z,98.40
2019-05-26T21:35:05.407Z,99.30
2019-05-26T21:37:33.231Z,99.90
2019-05-26T21:40:01.047Z,99.90
2019-05-26T21:42:28.819Z,99.90
2019-05-26T21:44:56.635Z,99.90
2019-05-26T21:47:24.469Z,99.90
2019-05-26T21:50:31.715Z,99.90
2019-05-26T21:52:59.515Z,99.90
2019-05-26T21:55:27.304Z,99.90
2019-05-26T21:57:55.104Z,99.90
2019-05-26T22:00:26.324Z,99.90
2019-05-26T22:02:54.109Z,99.90
2019-05-26T22:05:21.981Z,99.90
2019-05-26T22:07:49.809Z,99.90
2019-05-26T22:10:17.946Z,99.90
2019-05-26T22:12:45.713Z,99.90
2019-05-26T22:15:13.563Z,99.90
2019-05-26T22:17:41.349Z,99.90
2019-05-26T22:20:09.439Z,99.90
2019-05-26T22:22:37.230Z,99.90
2019-05-26T22:25:05.144Z,99.90
2019-05-26T22:27:32.919Z,99.90
2019-05-26T22:30:00.767Z,99.90
2019-05-26T22:32:28.551Z,99.90
2019-05-26T22:34:56.393Z,99.90
2019-05-26T22:37:24.195Z,99.90
2019-05-26T22:39:52.010Z,99.90
2019-05-26T22:42:19.809Z,99.90
2019-05-26T22:44:47.631Z,99.90
2019-05-26T22:47:15.469Z,99.90
2019-05-26T22:49:43.222Z,99.90
2019-05-26T22:52:11.028Z,99.90
2019-05-26T22:54:38.800Z,99.90
2019-05-26T22:57:06.629Z,99.90
2019-05-26T22:59:34.505Z,99.90
2019-05-26T23:02:02.372Z,99.90
2019-05-26T23:04:30.182Z,99.90
2019-05-26T23:06:57.981Z,99.90
2019-05-26T23:09:25.733Z,99.90
2019-05-26T23:11:53.528Z,99.90
2019-05-26T23:14:21.301Z,99.90
2019-05-26T23:16:49.108Z,99.90
2019-05-26T23:19:19.822Z,99.90
2019-05-26T23:21:46.659Z,99.90
2019-05-26T23:24:14.439Z,99.90
2019-05-26T23:26:42.233Z,99.90
2019-05-26T23:29:10.006Z,99.90
2019-05-26T23:31:37.785Z,99.90
2019-05-26T23:34:05.626Z,99.90
2019-05-26T23:36:33.441Z,99.90
2019-05-26T23:39:01.317Z,99.90
2019-05-26T23:41:29.486Z,99.90
2019-05-26T23:43:57.312Z,99.90
2019-05-26T23:46:25.120Z,99.90
2019-05-26T23:48:52.892Z,99.90
2019-05-26T23:51:20.687Z,99.90
2019-05-26T23:53:48.454Z,99.90
2019-05-26T23:56:16.256Z,99.90
2019-05-26T23:58:44.061Z,99.90
